In Rescue
 
Open Full Screen Window  High Contrast Mode
Wind Gusting 00 knots
03
July 24, 2024 4:39 PM EDT
Weather Information
Wind Direction
  290 °
Wind Speed
  03 kt (3 mph)
Wind Gust
  00 kt (0 mph)
Altimeter
30.09 in
Visibility
10 SM
Temperature
24° C
75° F
Dewpoint
15° C
59° F
Humidity
57%
1hr Rain Fall
00.00 in.
24hr Rain Fall
00.00 in.
Sky Condition
Overcast @ 6,000 ft
Broken @ 5,000 ft
Scattered @ 3,500 ft
VFR

METAR KRNP 242039Z AUTO 29003KT 10SM SCT035 BKN050 OVC060 24/15 A3009 RMK AO2 T02360153

FAA Disclaimer: The data displayed is for advisory purposes only and is not to be used for flight planning or operations.